Maupin, OR

11:56 PM PST on February 11, 2016 (GMT -0800)
Sportsmans Park | | Change Station
CLOSE
Current Station
Personal Weather Station
Location: Tygh Valley, OR
Elevation: 2293 ft
Nearby Weather Stations

Elev 2293 ft 45.22 °N, 121.40 °W | Updated 2 minutes ago

Overcast
Overcast
40.3 °F
Feels Like 40 °F
N
0.0
Wind Variable Wind from West

Today
High -- | Low -- °F
--% Chance of Precip.
Yesterday
High -- | Low -- °F
Precip. -- in
Pressure 30.21 in
Visibility 7.0 miles
Clouds Overcast 200 ft
Windchill 40 °F
Dew Point 40 °F
Humidity 99%
Rainfall 0.20 in
Snow Depth Not available.
7:12 AM 5:27 PM
Waxing Crescent, 18% visible
METAR KRDM 120656Z AUTO 17004KT 7SM OVC002 04/04 A3019 RMK AO2 SLP229 T00440039
Pressure 30.21 in
Visibility 7.0 miles
Clouds Overcast 200 ft
Windchill 40 °F
Dew Point 40 °F
Humidity 99%
Rainfall 0.20 in
Snow Depth Not available.
7:12 AM 5:27 PM
Waxing Crescent, 18% visible
METAR KRDM 120656Z AUTO 17004KT 7SM OVC002 04/04 A3019 RMK AO2 SLP229 T00440039

10-Day Weather Forecast

Almanac

Astronomy

Feb. 11, 2016 Rise Set
Actual Time
Civil Twilight
Nautical Twilight
Astronomical Twilight
Moon
Length of Visible Light
Length of Day
Tomorrow will be .
, % of the Moon is Illuminated

Today's Extremes

State Highs State Lows

Community

WunderPhotos

Upload Photos

1,892,278 photos uploaded!

WunderBlog® & News

Nearby

Air Quality

  Air Quality AQ Index Pollutant
Not available.

Snow Depth

Station Depth Elevation

Earthquake Activity

City Distance Mag. Time & Date
Minimum magnitude displayed is 2.5.

Coastal Water Temperatures

Place Temperature

Stations

Nearby Weather Stations

Station Location Temp. Windchill Dew Point Humidity Wind Precip. Elev Updated Type
                   

Watches & Warnings

There are currently no watches in effect.